Time;durP1;ratioP1;P1;durP2;ratioP2;P2;SDS_P1;SDS_P2;PMS_P1;PMS_P2;Temp;Humidity;BMP_temperature;BMP_pressure;BME280_temperature;BME280_humidity;BME280_pressure;Samples;Min_cycle;Max_cycle;Signal;HPM_P1;HPM_P2
2022/11/22 00:00:16;;;;;;;8.73;3.17;;;;;;;6.92;100.00;99116.28;5001639;28;20054;-67
2022/11/22 00:02:43;;;;;;;9.77;2.88;;;;;;;6.82;100.00;99102.63;5013630;28;20054;-66
2022/11/22 00:05:09;;;;;;;8.65;3.10;;;;;;;6.93;100.00;99104.06;5018824;28;20054;-66
2022/11/22 00:07:39;;;;;;;7.40;3.20;;;;;;;6.88;100.00;99103.72;4996298;28;20061;-67
2022/11/22 00:10:07;;;;;;;10.38;3.42;;;;;;;6.92;100.00;99110.28;5011983;28;20554;-67
2022/11/22 00:12:34;;;;;;;13.43;2.88;;;;;;;6.95;100.00;99104.72;5006698;28;20852;-67
2022/11/22 00:15:01;;;;;;;11.90;2.97;;;;;;;6.99;100.00;99102.59;5009932;28;20062;-67
2022/11/22 00:17:27;;;;;;;8.30;3.28;;;;;;;6.98;100.00;99093.13;5013708;28;20068;-67
2022/11/22 00:19:53;;;;;;;15.10;4.38;;;;;;;6.98;100.00;99106.16;5008617;28;20053;-66
2022/11/22 00:22:20;;;;;;;10.27;3.40;;;;;;;6.87;100.00;99115.16;5003048;28;20067;-66
2022/11/22 00:24:47;;;;;;;7.78;3.47;;;;;;;6.90;100.00;99120.03;5003611;28;20072;-67
2022/11/22 00:27:13;;;;;;;7.47;4.00;;;;;;;6.93;100.00;99106.66;5020867;28;20055;-67
2022/11/22 00:29:39;;;;;;;11.02;4.40;;;;;;;6.92;100.00;99105.84;5004762;28;20053;-67
2022/11/22 00:32:06;;;;;;;13.70;4.50;;;;;;;6.89;100.00;99108.78;5018607;28;20058;-67
2022/11/22 00:34:32;;;;;;;13.55;4.53;;;;;;;6.86;100.00;99105.69;5017906;28;20061;-66
2022/11/22 00:36:58;;;;;;;7.43;4.15;;;;;;;6.84;100.00;99115.47;5019985;28;20053;-67
2022/11/22 00:39:25;;;;;;;9.68;3.85;;;;;;;6.82;100.00;99107.00;5006043;28;20042;-67
2022/11/22 00:41:51;;;;;;;11.40;4.20;;;;;;;6.83;100.00;99108.63;5002798;28;20050;-67
2022/11/22 00:44:18;;;;;;;13.52;4.38;;;;;;;6.83;100.00;99099.00;5018735;28;20061;-67
2022/11/22 00:46:44;;;;;;;10.85;3.90;;;;;;;6.86;100.00;99092.66;5013449;28;20569;-66
2022/11/22 00:49:10;;;;;;;11.02;3.95;;;;;;;6.87;100.00;99095.09;5007636;28;20650;-67
2022/11/22 00:51:37;;;;;;;14.20;4.80;;;;;;;6.87;100.00;99102.91;5016270;28;20049;-67
2022/11/22 00:54:03;;;;;;;9.30;3.78;;;;;;;6.93;100.00;99101.44;5004465;28;20057;-67
2022/11/22 00:56:30;;;;;;;12.27;4.38;;;;;;;6.91;100.00;99098.19;5006991;28;20060;-67
2022/11/22 00:58:57;;;;;;;12.48;3.92;;;;;;;6.90;100.00;99097.38;5003683;28;20509;-67
2022/11/22 01:01:24;;;;;;;13.40;3.75;;;;;;;6.88;100.00;99104.56;5011368;28;20054;-67
2022/11/22 01:03:50;;;;;;;8.88;4.20;;;;;;;6.86;100.00;99116.09;5013666;28;20057;-68
2022/11/22 01:06:17;;;;;;;9.80;3.88;;;;;;;6.86;100.00;99111.72;5005891;28;20050;-66
2022/11/22 01:08:43;;;;;;;14.45;4.55;;;;;;;6.89;100.00;99107.97;5006732;28;20054;-67
2022/11/22 01:11:10;;;;;;;9.73;4.10;;;;;;;6.99;100.00;99110.41;5001448;28;20054;-67
2022/11/22 01:13:37;;;;;;;9.13;4.30;;;;;;;6.96;100.00;99126.38;5019286;28;20550;-67
2022/11/22 01:16:07;;;;;;;12.20;3.92;;;;;;;6.98;100.00;99112.22;5014147;28;20140;-68
2022/11/22 01:18:34;;;;;;;10.52;4.28;;;;;;;7.03;100.00;99103.88;5003936;28;20052;-67
2022/11/22 01:21:01;;;;;;;8.95;3.90;;;;;;;7.04;100.00;99111.53;5009094;28;20046;-68
2022/11/22 01:23:27;;;;;;;12.68;4.43;;;;;;;7.03;100.00;99120.34;4996313;28;20049;-67
2022/11/22 01:25:55;;;;;;;10.50;4.50;;;;;;;6.96;100.00;99111.56;5011058;28;20052;-67
2022/11/22 01:28:22;;;;;;;9.52;4.32;;;;;;;6.99;100.00;99110.41;5010614;28;20042;-67
2022/11/22 01:30:50;;;;;;;7.93;4.50;;;;;;;6.98;100.00;99109.59;5013089;28;20454;-67
2022/11/22 01:33:17;;;;;;;10.43;4.22;;;;;;;6.98;100.00;99107.00;5008896;28;20061;-67
2022/11/22 01:35:43;;;;;;;8.15;3.90;;;;;;;6.89;100.00;99094.94;5005406;28;20057;-67
2022/11/22 01:38:10;;;;;;;12.05;3.90;;;;;;;6.96;100.00;99095.91;5011181;28;20057;-67
2022/11/22 01:40:36;;;;;;;8.15;4.25;;;;;;;6.93;100.00;99096.25;5006362;28;20094;-67
2022/11/22 01:43:03;;;;;;;10.77;4.25;;;;;;;6.99;100.00;99094.75;5011062;28;20060;-67
2022/11/22 01:45:29;;;;;;;8.63;3.85;;;;;;;6.97;100.00;99096.72;5005643;28;20489;-67
2022/11/22 01:48:01;;;;;;;13.93;4.45;;;;;;;6.96;100.00;99090.72;5010590;28;20137;-67
2022/11/22 01:50:30;;;;;;;13.02;4.13;;;;;;;6.97;100.00;99088.91;5009809;28;20111;-67
2022/11/22 01:53:02;;;;;;;7.20;3.80;;;;;;;6.99;100.00;99094.75;4987114;28;20049;-68
2022/11/22 01:55:29;;;;;;;8.93;4.10;;;;;;;6.94;100.00;99097.88;5010958;28;20049;-67
2022/11/22 01:57:56;;;;;;;12.35;4.95;;;;;;;6.90;100.00;99099.19;5007564;28;20563;-67
2022/11/22 02:00:22;;;;;;;8.45;4.15;;;;;;;6.84;100.00;99102.44;5009720;28;20050;-67
2022/11/22 02:02:53;;;;;;;9.68;3.95;;;;;;;6.75;100.00;99112.06;5009531;28;20538;-67
2022/11/22 02:05:22;;;;;;;8.68;4.03;;;;;;;6.75;100.00;99119.06;5013716;28;20737;-67
2022/11/22 02:08:19;;;;;;;10.82;4.20;;;;;;;6.71;100.00;99122.00;5016950;28;20121;-67
2022/11/22 02:10:49;;;;;;;12.10;4.20;;;;;;;6.62;100.00;99124.75;4976910;28;20116;-67
2022/11/22 02:13:18;;;;;;;11.52;4.30;;;;;;;6.61;100.00;99126.56;5021355;28;20057;-67
2022/11/22 02:16:03;;;;;;;11.90;3.60;;;;;;;6.59;100.00;99123.28;5009282;28;20122;-67
2022/11/22 02:18:29;;;;;;;7.93;4.07;;;;;;;6.61;100.00;99130.97;5016917;28;20037;-67
2022/11/22 02:20:57;;;;;;;9.38;4.07;;;;;;;6.58;100.00;99121.66;5009907;28;20049;-67
2022/11/22 02:24:09;;;;;;;8.82;3.67;;;;;;;6.55;100.00;99137.63;5022284;28;20136;-67
2022/11/22 02:26:36;;;;;;;9.70;3.85;;;;;;;6.54;100.00;99122.97;4934291;28;20178;-67
2022/11/22 02:29:06;;;;;;;12.07;3.65;;;;;;;6.51;100.00;99137.13;5011488;28;20049;-67
2022/11/22 02:31:38;;;;;;;7.82;3.95;;;;;;;6.53;100.00;99139.56;5017425;28;20053;-67
2022/11/22 02:34:05;;;;;;;12.75;4.28;;;;;;;6.49;100.00;99143.47;5008356;28;20140;-67
2022/11/22 02:36:36;;;;;;;11.00;4.10;;;;;;;6.48;100.00;99142.66;5017676;28;20049;-67
2022/11/22 02:39:04;;;;;;;12.63;4.30;;;;;;;6.48;100.00;99134.84;5005907;28;20057;-68
2022/11/22 02:41:31;;;;;;;6.95;3.47;;;;;;;6.47;100.00;99133.22;5012628;28;20053;-68
2022/11/22 02:43:58;;;;;;;10.35;4.25;;;;;;;6.48;100.00;99137.44;5017404;28;20053;-67
2022/11/22 02:46:24;;;;;;;13.60;3.83;;;;;;;6.46;100.00;99139.38;5015564;28;20053;-67
2022/11/22 02:48:51;;;;;;;18.08;4.32;;;;;;;6.47;100.00;99129.81;5013235;28;20610;-67
2022/11/22 02:51:18;;;;;;;7.72;3.17;;;;;;;6.44;100.00;99123.09;5001101;28;20453;-67
2022/11/22 02:53:47;;;;;;;12.38;3.97;;;;;;;6.47;100.00;99130.63;5017452;28;20635;-67
2022/11/22 02:56:14;;;;;;;9.55;3.20;;;;;;;6.42;100.00;99132.06;5009664;28;20127;-68
2022/11/22 02:58:40;;;;;;;11.05;3.50;;;;;;;6.43;100.00;99137.13;5019556;28;20049;-67
2022/11/22 03:01:06;;;;;;;13.02;3.80;;;;;;;6.45;100.00;99139.53;5004801;28;20099;-67
2022/11/22 03:03:33;;;;;;;7.05;3.35;;;;;;;6.45;100.00;99139.53;5015223;28;20061;-67
2022/11/22 03:06:01;;;;;;;10.10;2.97;;;;;;;6.40;100.00;99142.63;5021282;28;20041;-67
2022/11/22 03:08:28;;;;;;;10.57;3.13;;;;;;;6.42;100.00;99138.09;5016238;28;20127;-67
2022/11/22 03:10:57;;;;;;;10.05;2.97;;;;;;;6.44;100.00;99150.97;5011334;28;20046;-67
2022/11/22 03:13:24;;;;;;;12.38;2.80;;;;;;;6.37;100.00;99147.34;5007260;28;20049;-67
2022/11/22 03:15:51;;;;;;;6.72;2.97;;;;;;;6.31;100.00;99147.03;5014588;28;20080;-67
2022/11/22 03:18:17;;;;;;;9.30;3.20;;;;;;;6.29;100.00;99142.94;5015758;28;20045;-67
2022/11/22 03:20:44;;;;;;;11.30;2.88;;;;;;;6.26;100.00;99151.91;5015071;28;20381;-67
2022/11/22 03:23:10;;;;;;;12.73;3.33;;;;;;;6.24;100.00;99158.25;4987345;28;1023065;-67
2022/11/22 03:25:37;;;;;;;7.80;2.70;;;;;;;6.25;100.00;99155.50;5004738;28;20060;-67
2022/11/22 03:28:04;;;;;;;8.85;2.60;;;;;;;6.23;100.00;99143.59;5023259;28;20111;-67
2022/11/22 03:30:31;;;;;;;11.35;2.75;;;;;;;6.28;100.00;99165.56;5001889;28;20486;-67
2022/11/22 03:32:57;;;;;;;11.40;2.88;;;;;;;6.22;100.00;99163.59;5020928;28;20051;-67
2022/11/22 03:35:23;;;;;;;13.05;2.83;;;;;;;6.20;100.00;99165.56;5025323;28;20057;-67
2022/11/22 03:37:50;;;;;;;15.18;2.50;;;;;;;6.22;100.00;99168.00;5016855;28;20422;-66
2022/11/22 03:40:17;;;;;;;11.90;2.60;;;;;;;6.19;100.00;99166.50;5015644;28;20052;-67
2022/11/22 03:42:43;;;;;;;11.68;2.42;;;;;;;6.19;100.00;99163.09;5007357;28;20054;-66
2022/11/22 03:45:09;;;;;;;11.80;2.67;;;;;;;6.13;100.00;99159.34;5015367;28;20049;-67
2022/11/22 03:47:36;;;;;;;11.27;2.35;;;;;;;6.11;100.00;99177.72;5025358;28;20061;-66
2022/11/22 03:50:03;;;;;;;15.70;2.55;;;;;;;6.10;100.00;99172.69;5022159;28;20565;-66
2022/11/22 03:52:30;;;;;;;16.40;2.80;;;;;;;6.06;100.00;99176.59;5019050;28;20045;-66
2022/11/22 03:54:56;;;;;;;11.48;2.38;;;;;;;6.05;100.00;99186.16;5014541;28;20107;-66
2022/11/22 03:57:22;;;;;;;12.68;2.17;;;;;;;6.09;100.00;99190.06;5003791;28;20050;-66
2022/11/22 03:59:49;;;;;;;14.10;2.38;;;;;;;6.03;100.00;99195.09;4998217;28;20143;-66
2022/11/22 04:02:15;;;;;;;17.02;2.55;;;;;;;6.03;100.00;99203.72;5018085;28;20049;-66
2022/11/22 04:04:42;;;;;;;10.45;2.25;;;;;;;6.01;100.00;99199.66;5022006;28;20054;-66
2022/11/22 04:07:08;;;;;;;12.43;2.50;;;;;;;5.97;100.00;99195.72;5018998;28;20740;-66
2022/11/22 04:09:35;;;;;;;14.82;2.40;;;;;;;5.95;100.00;99193.28;5022790;28;20045;-68
2022/11/22 04:12:01;;;;;;;14.52;2.53;;;;;;;5.96;100.00;99200.13;5002311;28;20151;-66
2022/11/22 04:17:13;;;;;;;15.32;2.38;;;;;;;5.95;100.00;99190.69;5009242;28;20130;-66
2022/11/22 04:21:32;;;;;;;12.32;2.28;;;;;;;5.89;100.00;99193.88;5033683;28;20046;-66
2022/11/22 04:22:26;;;;;;;10.27;2.30;;;;;;;5.88;100.00;99207.84;5024988;28;20399;-66
2022/11/22 04:27:37;;;;;;;13.43;2.35;;;;;;;5.85;100.00;99208.97;5016316;28;20057;-66
2022/11/22 04:30:04;;;;;;;14.65;2.72;;;;;;;5.88;100.00;99223.47;5016969;28;20049;-67
2022/11/22 04:32:45;;;;;;;11.98;2.08;;;;;;;5.81;100.00;99215.47;5021604;28;20057;-66
2022/11/22 04:35:17;;;;;;;10.27;2.20;;;;;;;5.83;100.00;99215.31;5018593;28;20073;-66
2022/11/22 04:37:50;;;;;;;10.93;2.28;;;;;;;5.82;100.00;99219.72;5028098;28;20603;-66
2022/11/22 04:40:16;;;;;;;10.75;2.05;;;;;;;5.80;100.00;99215.63;5016806;28;20274;-66
2022/11/22 04:45:27;;;;;;;8.35;1.42;;;;;;;5.70;100.00;99208.75;5027948;28;20052;-66
2022/11/22 04:47:59;;;;;;;8.30;2.50;;;;;;;5.68;100.00;99208.06;5023303;28;20067;-66
2022/11/22 04:53:14;;;;;;;17.52;1.83;;;;;;;5.66;100.00;99215.22;5011431;28;20792;-66
2022/11/22 04:55:42;;;;;;;11.43;2.13;;;;;;;5.68;100.00;99220.28;5024593;28;20063;-67
2022/11/22 04:58:08;;;;;;;10.90;2.00;;;;;;;5.63;100.00;99222.53;5017840;28;20053;-67
2022/11/22 05:00:35;;;;;;;11.85;1.98;;;;;;;5.57;100.00;99226.56;5024598;28;20046;-67
2022/11/22 05:03:03;;;;;;;10.43;2.22;;;;;;;5.57;100.00;99228.31;5021018;28;20452;-67
2022/11/22 05:05:30;;;;;;;7.97;2.40;;;;;;;5.58;100.00;99238.59;5011684;28;20065;-66
2022/11/22 05:07:59;;;;;;;8.93;1.90;;;;;;;5.59;100.00;99227.22;5019159;28;20049;-66
2022/11/22 05:10:25;;;;;;;10.93;2.03;;;;;;;5.51;100.00;99241.00;5024849;28;20493;-67
2022/11/22 05:12:54;;;;;;;12.88;2.38;;;;;;;5.51;100.00;99243.59;5022079;28;20550;-66
2022/11/22 05:15:20;;;;;;;10.67;2.67;;;;;;;5.44;100.00;99233.94;5018054;28;20052;-66
2022/11/22 05:17:46;;;;;;;14.25;2.17;;;;;;;5.44;100.00;99239.97;5013305;28;20108;-66
2022/11/22 05:20:13;;;;;;;13.32;1.98;;;;;;;5.40;100.00;99248.22;5017853;28;20049;-66
2022/11/22 05:25:24;;;;;;;14.60;2.17;;;;;;;5.35;100.00;99249.50;5031273;28;20059;-66
2022/11/22 05:27:52;;;;;;;19.00;2.78;;;;;;;5.34;100.00;99244.44;5018448;28;20154;-66
2022/11/22 05:30:19;;;;;;;9.43;1.80;;;;;;;5.31;100.00;99242.13;5007230;28;20078;-66
2022/11/22 05:32:45;;;;;;;10.18;1.58;;;;;;;5.28;100.00;99235.47;5023519;28;20060;-66
2022/11/22 05:35:12;;;;;;;9.95;2.15;;;;;;;5.32;100.00;99241.19;5007322;28;20056;-66
2022/11/22 05:37:38;;;;;;;12.63;2.47;;;;;;;5.30;100.00;99256.91;5014038;28;20076;-66
2022/11/22 05:40:05;;;;;;;14.45;2.10;;;;;;;5.29;100.00;99251.88;5009657;28;20367;-66
2022/11/22 05:42:33;;;;;;;9.18;2.17;;;;;;;5.21;100.00;99259.59;5024916;28;20120;-66
2022/11/22 05:44:59;;;;;;;13.48;2.53;;;;;;;5.20;100.00;99260.59;5020023;28;20050;-66
2022/11/22 05:47:25;;;;;;;8.55;2.00;;;;;;;5.17;100.00;99253.06;5021493;28;20103;-66
2022/11/22 05:49:52;;;;;;;9.82;2.60;;;;;;;5.12;100.00;99254.34;5026424;28;20058;-66
2022/11/22 05:52:18;;;;;;;12.50;2.70;;;;;;;5.11;100.00;99244.09;5001940;28;20045;-66
2022/11/22 05:54:45;;;;;;;9.23;1.60;;;;;;;5.11;100.00;99257.91;5011874;28;20079;-66
2022/11/22 05:57:11;;;;;;;13.68;2.53;;;;;;;5.05;100.00;99257.69;5017576;28;20049;-66
2022/11/22 05:59:37;;;;;;;12.00;2.22;;;;;;;4.99;100.00;99259.09;5022682;28;20405;-67
2022/11/22 06:02:09;;;;;;;10.55;1.85;;;;;;;5.00;100.00;99249.50;5013108;28;20060;-66
2022/11/22 06:04:36;;;;;;;11.77;1.88;;;;;;;5.02;100.00;99250.16;5009061;28;20060;-66
2022/11/22 06:07:02;;;;;;;9.60;2.50;;;;;;;4.97;100.00;99242.84;5013423;28;20521;-66
2022/11/22 06:09:35;;;;;;;9.57;1.92;;;;;;;4.97;100.00;99247.22;5012825;28;20081;-66
2022/11/22 06:12:02;;;;;;;13.93;1.95;;;;;;;4.96;100.00;99251.63;5015537;28;20056;-66
2022/11/22 06:14:28;;;;;;;14.00;1.77;;;;;;;4.95;100.00;99247.38;5014304;28;20099;-66
2022/11/22 06:16:55;;;;;;;14.35;2.60;;;;;;;4.91;100.00;99252.03;5021861;28;20061;-66
2022/11/22 06:19:21;;;;;;;9.82;2.05;;;;;;;4.90;100.00;99249.59;5027514;28;20053;-66
2022/11/22 06:21:48;;;;;;;13.70;2.15;;;;;;;4.90;100.00;99254.78;5021507;28;20060;-66
2022/11/22 06:24:14;;;;;;;10.70;1.70;;;;;;;4.92;100.00;99255.44;5020916;28;20057;-66
2022/11/22 06:26:40;;;;;;;9.85;2.22;;;;;;;4.88;100.00;99259.31;4998402;28;20053;-66
2022/11/22 06:29:07;;;;;;;12.90;2.05;;;;;;;4.86;100.00;99263.84;5018895;28;20080;-66
2022/11/22 06:31:33;;;;;;;11.82;2.03;;;;;;;4.86;100.00;99266.44;5010596;28;20127;-66
2022/11/22 06:33:59;;;;;;;6.45;2.03;;;;;;;4.85;100.00;99264.81;4999784;28;21875;-66
2022/11/22 06:36:30;;;;;;;9.73;2.88;;;;;;;4.84;100.00;99269.19;5015386;28;20050;-67
2022/11/22 06:38:57;;;;;;;10.45;2.28;;;;;;;4.84;100.00;99264.00;5027759;28;20117;-67
2022/11/22 06:41:31;;;;;;;17.70;2.88;;;;;;;4.84;100.00;99269.19;5019301;28;20100;-67
2022/11/22 06:43:58;;;;;;;11.50;2.17;;;;;;;4.78;100.00;99277.56;5017837;28;20071;-67
2022/11/22 06:46:26;;;;;;;15.77;2.70;;;;;;;4.80;100.00;99269.63;5012567;28;20054;-66
2022/11/22 06:48:52;;;;;;;13.45;1.90;;;;;;;4.77;100.00;99264.75;5013599;28;20477;-66
2022/11/22 06:51:25;;;;;;;14.30;1.92;;;;;;;4.83;100.00;99270.16;5006534;28;20046;-66
2022/11/22 06:53:56;;;;;;;10.30;1.83;;;;;;;4.79;100.00;99268.00;5018822;28;20057;-67
2022/11/22 06:56:28;;;;;;;10.38;2.15;;;;;;;4.84;100.00;99278.75;5013343;28;20429;-66
2022/11/22 06:58:55;;;;;;;11.82;2.05;;;;;;;4.80;100.00;99275.63;5017638;28;20063;-66
2022/11/22 07:01:27;;;;;;;10.18;2.10;;;;;;;4.77;100.00;99282.94;5000368;28;20053;-67
2022/11/22 07:03:56;;;;;;;13.20;2.40;;;;;;;4.70;100.00;99286.09;5015045;28;20054;-68
2022/11/22 07:06:29;;;;;;;12.20;3.13;;;;;;;4.71;100.00;99286.91;5016152;28;20053;-66
2022/11/22 07:08:56;;;;;;;7.47;2.25;;;;;;;4.63;100.00;99292.03;5003880;28;20064;-66
2022/11/22 07:11:25;;;;;;;10.07;2.72;;;;;;;4.60;100.00;99297.50;5009657;28;20038;-67
2022/11/22 07:13:51;;;;;;;9.75;2.03;;;;;;;4.56;100.00;99299.56;5012503;28;20053;-66
2022/11/22 07:16:20;;;;;;;14.05;2.40;;;;;;;4.60;100.00;99308.69;5014150;28;20052;-67
2022/11/22 07:18:47;;;;;;;11.75;1.85;;;;;;;4.56;100.00;99304.75;5009202;28;20476;-66
2022/11/22 07:21:21;;;;;;;7.47;1.98;;;;;;;4.62;100.00;99300.78;5017497;28;20042;-67
2022/11/22 07:23:50;;;;;;;11.20;2.08;;;;;;;4.60;100.00;99305.28;5029719;28;20083;-66
2022/11/22 07:26:17;;;;;;;9.30;2.20;;;;;;;4.54;100.00;99312.69;5009222;28;20076;-66
2022/11/22 07:28:44;;;;;;;10.88;2.20;;;;;;;4.52;100.00;99312.00;5010867;28;20053;-67
2022/11/22 07:31:12;;;;;;;12.20;2.33;;;;;;;4.52;100.00;99322.41;4998497;28;20142;-67
2022/11/22 07:33:39;;;;;;;10.35;2.67;;;;;;;4.50;100.00;99313.13;5015173;28;20057;-67
2022/11/22 07:36:11;;;;;;;5.55;2.03;;;;;;;4.65;100.00;99323.88;5007822;28;20053;-66
2022/11/22 07:38:38;;;;;;;8.63;2.22;;;;;;;4.64;100.00;99323.03;5030308;28;20072;-67
2022/11/22 07:41:05;;;;;;;10.77;2.28;;;;;;;4.62;100.00;99324.16;5031540;28;20060;-67
2022/11/22 07:43:32;;;;;;;15.50;2.53;;;;;;;4.65;100.00;99322.09;5007528;28;20052;-67
2022/11/22 07:46:00;;;;;;;8.15;2.22;;;;;;;4.78;100.00;99333.91;5024871;28;20053;-67
2022/11/22 07:48:27;;;;;;;14.77;2.00;;;;;;;4.75;100.00;99342.81;5017341;28;20107;-67
2022/11/22 07:50:53;;;;;;;13.90;2.78;;;;;;;4.79;100.00;99335.56;5023030;28;20474;-67
2022/11/22 07:53:20;;;;;;;11.75;2.60;;;;;;;4.77;100.00;99337.47;5027408;28;20070;-67
2022/11/22 07:55:46;;;;;;;7.95;2.15;;;;;;;4.81;100.00;99338.81;5014460;28;20123;-67
2022/11/22 07:58:13;;;;;;;11.73;2.30;;;;;;;4.82;100.00;99341.28;5011223;28;20689;-67
2022/11/22 08:00:39;;;;;;;10.52;2.42;;;;;;;4.86;100.00;99341.78;5008746;28;20068;-67
2022/11/22 08:03:07;;;;;;;9.80;2.17;;;;;;;4.94;100.00;99344.50;5023855;28;20049;-67
2022/11/22 08:05:33;;;;;;;10.87;2.20;;;;;;;4.95;100.00;99335.72;4995776;28;20053;-67
2022/11/22 08:08:00;;;;;;;10.27;2.20;;;;;;;4.94;100.00;99350.50;5015082;28;20299;-67
2022/11/22 08:10:26;;;;;;;11.43;2.15;;;;;;;4.90;100.00;99343.13;5009799;28;20042;-67
2022/11/22 08:12:53;;;;;;;16.08;2.50;;;;;;;5.00;100.00;99343.91;5008883;28;20147;-67
2022/11/22 08:15:19;;;;;;;9.05;1.88;;;;;;;5.03;100.00;99346.19;5023926;28;20053;-67
2022/11/22 08:17:45;;;;;;;12.45;2.15;;;;;;;5.09;100.00;99348.19;5021862;28;20045;-67
2022/11/22 08:20:12;;;;;;;9.73;1.80;;;;;;;5.10;100.00;99349.03;5023206;28;20103;-67
2022/11/22 08:22:39;;;;;;;17.40;2.58;;;;;;;5.14;100.00;99339.97;5022629;28;20075;-67
2022/11/22 08:25:11;;;;;;;7.35;1.85;;;;;;;5.21;100.00;99341.00;5002718;28;20046;-67
2022/11/22 08:27:39;;;;;;;6.15;1.80;;;;;;;5.27;100.00;99342.19;5011331;28;20132;-67
2022/11/22 08:30:06;;;;;;;10.27;2.67;;;;;;;5.32;100.00;99339.97;5022785;28;20396;-67
2022/11/22 08:32:33;;;;;;;10.73;2.20;;;;;;;5.33;100.00;99339.00;5022953;28;20298;-67
2022/11/22 08:35:00;;;;;;;10.38;2.10;;;;;;;5.33;100.00;99342.44;5016169;28;20049;-67
2022/11/22 08:37:26;;;;;;;10.18;2.10;;;;;;;5.35;100.00;99350.06;5020281;28;20127;-67
2022/11/22 08:39:52;;;;;;;11.38;2.67;;;;;;;5.35;100.00;99342.25;5017659;28;20676;-67
2022/11/22 08:42:19;;;;;;;12.10;3.40;;;;;;;5.42;100.00;99335.50;5006151;28;20562;-66
2022/11/22 08:44:45;;;;;;;8.60;2.30;;;;;;;5.43;100.00;99347.56;5004713;28;20054;-67
2022/11/22 08:47:11;;;;;;;17.13;2.45;;;;;;;5.50;100.00;99339.97;5013798;28;20099;-67
2022/11/22 08:49:38;;;;;;;8.63;2.38;;;;;;;5.49;100.00;99335.75;5024379;28;20095;-67
2022/11/22 08:52:04;;;;;;;7.57;2.00;;;;;;;5.55;100.00;99346.34;5015517;28;20053;-66
2022/11/22 08:54:30;;;;;;;11.13;2.22;;;;;;;5.54;100.00;99352.50;5022585;28;20053;-67
2022/11/22 08:57:03;;;;;;;10.50;1.90;;;;;;;5.58;100.00;99345.22;5016883;28;20107;-67
2022/11/22 08:59:29;;;;;;;9.18;1.98;;;;;;;5.63;100.00;99347.41;5013749;28;20754;-67
2022/11/22 09:01:56;;;;;;;7.00;1.88;;;;;;;5.61;100.00;99347.53;5013695;28;20746;-67
2022/11/22 09:04:22;;;;;;;13.05;2.80;;;;;;;5.57;100.00;99356.63;5004815;28;20728;-67
2022/11/22 09:06:48;;;;;;;16.85;2.40;;;;;;;5.66;100.00;99349.69;5019509;28;20103;-67
2022/11/22 09:09:35;;;;;;;10.10;2.00;;;;;;;5.74;100.00;99353.19;5007468;28;20144;-67
2022/11/22 09:12:03;;;;;;;8.30;1.83;;;;;;;5.81;100.00;99345.56;5017477;28;20053;-67
2022/11/22 09:14:30;;;;;;;5.45;1.77;;;;;;;5.79;100.00;99363.13;5022626;28;20517;-67
2022/11/22 09:16:56;;;;;;;10.57;2.47;;;;;;;5.88;100.00;99361.38;5015976;28;20061;-67
2022/11/22 09:19:22;;;;;;;11.05;1.95;;;;;;;5.92;100.00;99360.16;5017039;28;20042;-67
2022/11/22 09:21:49;;;;;;;7.05;1.75;;;;;;;5.96;100.00;99365.88;5007935;28;20568;-66
2022/11/22 09:24:15;;;;;;;10.50;1.95;;;;;;;6.04;100.00;99356.34;5021472;28;20872;-67
2022/11/22 09:26:41;;;;;;;7.90;2.60;;;;;;;6.02;100.00;99350.47;5019134;28;20058;-67
2022/11/22 09:29:08;;;;;;;12.40;2.58;;;;;;;6.14;100.00;99364.88;5017185;28;20468;-67
2022/11/22 09:31:34;;;;;;;14.55;2.20;;;;;;;6.03;100.00;99367.72;5020733;28;20088;-67
2022/11/22 09:34:00;;;;;;;11.15;2.17;;;;;;;6.19;100.00;99380.00;5009968;28;20064;-67
2022/11/22 09:36:27;;;;;;;6.18;1.50;;;;;;;6.18;100.00;99374.97;5024496;28;20053;-67
2022/11/22 09:38:54;;;;;;;8.75;2.28;;;;;;;6.20;100.00;99365.22;5010729;28;20053;-67
2022/11/22 09:41:40;;;;;;;6.73;2.03;;;;;;;6.29;100.00;99369.50;5021210;28;20077;-67
2022/11/22 09:44:25;;;;;;;11.60;2.38;;;;;;;6.23;100.00;99373.53;5022102;28;20057;-67
2022/11/22 09:47:18;;;;;;;9.32;1.85;;;;;;;6.24;100.00;99363.94;5016981;28;20490;-68
2022/11/22 09:50:04;;;;;;;9.13;2.20;;;;;;;6.20;100.00;99362.63;5029495;28;20049;-67
2022/11/22 09:52:41;;;;;;;8.05;1.73;;;;;;;6.43;100.00;99378.53;5010143;28;20095;-67
2022/11/22 09:55:31;;;;;;;11.45;1.95;;;;;;;6.38;100.00;99375.59;5021880;28;20787;-67
2022/11/22 09:58:12;;;;;;;8.15;1.88;;;;;;;6.45;100.00;99369.59;4998704;28;20101;-67
2022/11/22 10:00:41;;;;;;;8.55;1.75;;;;;;;6.54;100.00;99363.44;5009732;28;20050;-67
2022/11/22 10:03:45;;;;;;;12.00;2.90;;;;;;;6.62;100.00;99361.84;5011207;28;20053;-67
2022/11/22 10:06:18;;;;;;;7.72;2.05;;;;;;;6.63;100.00;99369.50;5013003;28;20103;-67
2022/11/22 10:08:58;;;;;;;8.40;2.38;;;;;;;6.69;100.00;99373.28;5008874;28;20065;-67
2022/11/22 10:11:41;;;;;;;9.32;1.73;;;;;;;6.69;100.00;99375.91;5013480;28;20041;-67
2022/11/22 10:14:16;;;;;;;11.45;2.85;;;;;;;6.70;100.00;99367.09;5012811;28;20058;-67
2022/11/22 10:16:49;;;;;;;7.53;1.70;;;;;;;6.80;100.00;99365.19;5023396;28;20057;-67
2022/11/22 10:19:28;;;;;;;7.80;2.35;;;;;;;6.73;100.00;99357.16;4996879;28;20399;-67
2022/11/22 10:21:55;;;;;;;7.55;2.00;;;;;;;6.71;100.00;99363.53;5010025;28;20076;-67
2022/11/22 10:24:21;;;;;;;6.60;1.70;;;;;;;6.71;100.00;99363.53;5016155;28;20064;-68
2022/11/22 10:26:48;;;;;;;7.57;1.40;;;;;;;6.79;100.00;99352.31;5008324;28;20057;-67
2022/11/22 10:29:33;;;;;;;11.20;2.08;;;;;;;6.84;100.00;99350.03;5014950;28;20095;-68
2022/11/22 10:32:27;;;;;;;9.30;2.55;;;;;;;6.90;100.00;99344.22;5017734;28;20052;-68
2022/11/22 10:35:13;;;;;;;9.02;2.17;;;;;;;6.93;100.00;99344.69;5007339;28;20049;-67
2022/11/22 10:38:24;;;;;;;5.82;1.70;;;;;;;6.97;100.00;99339.16;5012751;28;20049;-68
2022/11/22 10:41:09;;;;;;;8.00;1.98;;;;;;;6.98;100.00;99344.22;5011287;28;20750;-67
2022/11/22 10:43:50;;;;;;;8.93;2.22;;;;;;;7.02;100.00;99344.72;5008967;28;20054;-68
2022/11/22 10:46:29;;;;;;;6.47;1.88;;;;;;;7.19;100.00;99348.16;5014281;28;20061;-68
2022/11/22 10:49:10;;;;;;;5.43;1.52;;;;;;;7.21;100.00;99335.78;5012262;28;20049;-67
2022/11/22 10:51:55;;;;;;;5.72;1.40;;;;;;;7.22;100.00;99338.25;5015122;28;20062;-68
2022/11/22 10:54:51;;;;;;;6.07;1.77;;;;;;;7.18;100.00;99339.53;5019808;28;20053;-68
2022/11/22 10:57:34;;;;;;;7.57;1.70;;;;;;;7.18;100.00;99336.13;5026727;28;20053;-68
2022/11/22 11:00:16;;;;;;;7.30;1.60;;;;;;;7.21;100.00;99325.34;5021008;28;20068;-67
2022/11/22 11:03:15;;;;;;;5.07;1.45;;;;;;;7.20;100.00;99327.16;5008170;28;20053;-68
2022/11/22 11:05:49;;;;;;;6.68;1.60;;;;;;;7.21;100.00;99325.34;5006633;28;20057;-68
2022/11/22 11:08:41;;;;;;;2.92;1.27;;;;;;;7.10;100.00;99326.50;5011650;28;20065;-68
2022/11/22 11:11:29;;;;;;;6.03;1.35;;;;;;;7.10;100.00;99327.31;5008137;28;20115;-68
2022/11/22 11:14:06;;;;;;;2.33;1.15;;;;;;;7.11;100.00;99317.69;5017362;28;20053;-68
2022/11/22 11:16:35;;;;;;;6.40;1.98;;;;;;;7.08;100.00;99331.84;5022809;28;20056;-68
2022/11/22 11:19:18;;;;;;;5.75;1.83;;;;;;;7.14;100.00;99327.81;5015209;28;20053;-68
2022/11/22 11:21:49;;;;;;;3.67;1.20;;;;;;;7.06;100.00;99312.16;5020744;28;20053;-68
2022/11/22 11:24:15;;;;;;;5.18;1.45;;;;;;;7.06;100.00;99319.97;5028682;28;20052;-68
2022/11/22 11:26:50;;;;;;;8.88;1.52;;;;;;;7.07;100.00;99309.34;5021501;28;20136;-67
2022/11/22 11:29:16;;;;;;;3.42;1.10;;;;;;;7.07;100.00;99325.00;5008420;28;20056;-68
2022/11/22 11:31:46;;;;;;;4.68;1.45;;;;;;;7.15;100.00;99307.75;5017096;28;20137;-68
2022/11/22 11:34:22;;;;;;;2.78;1.10;;;;;;;7.27;100.00;99306.44;5023509;28;20049;-68
2022/11/22 11:36:49;;;;;;;6.40;1.50;;;;;;;7.27;100.00;99315.09;5012708;28;20060;-68
2022/11/22 11:39:20;;;;;;;4.93;1.10;;;;;;;7.33;100.00;99305.78;5020127;28;20060;-68
2022/11/22 11:41:47;;;;;;;3.65;1.00;;;;;;;7.26;100.00;99305.63;5017571;28;20059;-68
2022/11/22 11:44:35;;;;;;;2.83;1.00;;;;;;;7.34;100.00;99312.66;5016566;28;20398;-68
2022/11/22 11:47:03;;;;;;;6.33;1.20;;;;;;;7.38;100.00;99305.31;5008617;28;20581;-69
2022/11/22 11:49:32;;;;;;;4.60;0.90;;;;;;;7.36;100.00;99294.25;5014987;28;20053;-68
2022/11/22 11:52:16;;;;;;;3.20;0.93;;;;;;;7.38;100.00;99302.72;5018368;28;20081;-68
2022/11/22 11:54:50;;;;;;;4.90;1.10;;;;;;;7.53;100.00;99295.88;5017618;28;20053;-68